Flight Track Log - Related Links

Times and Time Zones

All times are in EDT time to prevent confusion due to time zone crossing. See the AAL1326 flight status page for this flight to view local times or setup timezone preferences in your user account.

Time Position Orientation Groundspeed Altitude Reporting Facility
EDT Latitude Longitude Course Direction KTS MPH feet Rate Location/Type
Tue 06:52:37 PM 41.9820 -87.8700 90° East 169 194 1,600  Level FlightAware ADS-B
Tue 06:52:52 PM 41.9750 -87.8570 126° Southeast 186 214 2,000 1,600 Climbing FlightAware ADS-B
Tue 06:53:22 PM 41.9530 -87.8320 140° Southeast 219 252 2,800 1,745 Climbing FlightAware ADS-B
Tue 06:53:47 PM 41.9320 -87.8070 138° Southeast 243 280 3,600 1,950 Climbing FlightAware ADS-B
Tue 06:54:02 PM 41.9180 -87.7950 147° Southeast 257 296 4,100 1,600 Climbing FlightAware ADS-B
Tue 06:54:17 PM 41.9000 -87.7890 166° South 267 307 4,400 1,950 Climbing FlightAware ADS-B
Tue 06:54:42 PM 41.8700 -87.7870 177° South 272 313 5,400 2,618 Climbing FlightAware ADS-B
Tue 06:55:12 PM 41.8320 -87.7850 178° South 277 319 6,800 2,800 Climbing FlightAware ADS-B
Tue 06:55:42 PM 41.7920 -87.7830 178° South 287 330 8,200 2,945 Climbing FlightAware ADS-B
Tue 06:56:07 PM 41.7560 -87.7810 178° South 294 338 9,500 3,000 Climbing FlightAware ADS-B
Tue 06:56:52 PM 41.6970 -87.7760 176° South 301 346 11,700 2,894 Climbing FlightAware ADS-B
Tue 06:57:32 PM 41.6400 -87.7650 172° South 316 364 13,600 2,025 Climbing FlightAware ADS-B
Tue 06:58:12 PM 41.5760 -87.7530 172° South 371 427 14,400 2,188 Climbing FlightAware ADS-B
Tue 06:58:57 PM 41.4960 -87.7380 172° South 384 442 16,700 2,965 Climbing FlightAware ADS-B
Tue 06:59:37 PM 41.4270 -87.7260 173° South 392 451 18,600 2,700 Climbing FlightAware ADS-B
Tue 07:00:17 PM 41.3540 -87.7250 179° South 402 463 20,300 2,541 Climbing FlightAware ADS-B
Tue 07:01:02 PM 41.2690 -87.7250 180° South 413 475 22,200 2,280 Climbing FlightAware ADS-B
Tue 07:01:57 PM 41.1580 -87.7200 178° South 427 491 24,100 1,980 Climbing FlightAware ADS-B
Tue 07:02:42 PM 41.0700 -87.7080 174° South 438 504 25,500 1,765 Climbing FlightAware ADS-B
Tue 07:03:22 PM 40.9940 -87.6980 174° South 443 510 26,600 1,725 Climbing FlightAware ADS-B
Tue 07:04:02 PM 40.9120 -87.6860 174° South 447 514 27,800 1,725 Climbing FlightAware ADS-B
Tue 07:04:42 PM 40.8260 -87.6750 174° South 453 521 28,900 1,575 Climbing FlightAware ADS-B
Tue 07:05:22 PM 40.7480 -87.6650 174° South 457 526 29,900 1,624 Climbing FlightAware ADS-B
Tue 07:06:07 PM 40.6450 -87.6510 174° South 457 526 31,200 1,600 Climbing FlightAware ADS-B
Tue 07:06:52 PM 40.5500 -87.6380 174° South 460 529 32,300 1,482 Climbing FlightAware ADS-B
Tue 07:07:32 PM 40.4690 -87.6270 174° South 460 529 33,300 900 Climbing FlightAware ADS-B
Tue 07:08:12 PM 40.3890 -87.6160 174° South 460 529 33,500 2,259 Climbing FlightAware ADS-B
Tue 07:08:57 PM 40.2950 -87.5920 169° South 430 495 36,500 2,211 Climbing FlightAware ADS-B
Tue 07:09:47 PM 40.2080 -87.5390 155° Southeast 428 493 37,000 300 Climbing FlightAware ADS-B
Tue 07:10:37 PM 40.1330 -87.4900 153° Southeast 428 493 37,000  Level FlightAware ADS-B
Tue 07:11:17 PM 40.0720 -87.4520 155° Southeast 428 493 37,000  Level FlightAware ADS-B
Tue 07:12:07 PM 39.9510 -87.3760 154° Southeast 436 502 37,000  Level FlightAware ADS-B
Tue 07:12:47 PM 39.8770 -87.3250 152° Southeast 435 501 37,000  Level FlightAware ADS-B
Tue 07:13:37 PM 39.7900 -87.2660 152° Southeast 435 501 37,000  Level FlightAware ADS-B
Tue 07:14:17 PM 39.7250 -87.2210 152° Southeast 435 501 37,000  Level FlightAware ADS-B
Tue 07:15:02 PM 39.6390 -87.1650 153° Southeast 435 501 37,000  Level FlightAware ADS-B
Tue 07:15:42 PM 39.5670 -87.1170 153° Southeast 436 502 37,000  Level FlightAware ADS-B
Tue 07:16:27 PM 39.4820 -87.0610 153° Southeast 437 503 37,000  Level FlightAware ADS-B
Tue 07:17:07 PM 39.4110 -87.0140 153° Southeast 438 504 37,000  Level FlightAware ADS-B
Tue 07:17:47 PM 39.3390 -86.9670 153° Southeast 440 506 37,000  Level FlightAware ADS-B
Tue 07:18:32 PM 39.2590 -86.9130 152° Southeast 444 511 37,000  Level FlightAware ADS-B
Tue 07:19:12 PM 39.1860 -86.8650 153° Southeast 447 514 37,000  Level FlightAware ADS-B
Tue 07:19:57 PM 39.0990 -86.8080 153° Southeast 449 517 37,000  Level FlightAware ADS-B
Tue 07:20:37 PM 39.0280 -86.7580 151° Southeast 450 518 37,000  Level FlightAware ADS-B
Tue 07:21:12 PM 38.9700 -86.7190 152° Southeast 452 520 37,000  Level FlightAware ADS-B
Tue 07:22:02 PM 38.8740 -86.6540 152° Southeast 451 519 37,000  Level FlightAware ADS-B
Tue 07:22:42 PM 38.8000 -86.6040 152° Southeast 448 516 37,000  Level FlightAware ADS-B
Tue 07:23:27 PM 38.7160 -86.5480 153° Southeast 449 517 37,000  Level FlightAware ADS-B
Tue 07:24:07 PM 38.6410 -86.4990 153° Southeast 449 517 37,000  Level FlightAware ADS-B
Tue 07:24:47 PM 38.5720 -86.4520 152° Southeast 450 518 37,000  Level FlightAware ADS-B
Tue 07:25:32 PM 38.4830 -86.3930 153° Southeast 449 517 37,000  Level FlightAware ADS-B
Tue 07:26:12 PM 38.4090 -86.3440 153° Southeast 449 517 37,000  Level FlightAware ADS-B
Tue 07:26:57 PM 38.3320 -86.2920 152° Southeast 448 516 37,000  Level FlightAware ADS-B
Tue 07:27:37 PM 38.2580 -86.2430 153° Southeast 448 516 37,000  Level FlightAware ADS-B
Tue 07:28:17 PM 38.1810 -86.1920 152° Southeast 448 516 37,000  Level FlightAware ADS-B
Tue 07:29:02 PM 38.0980 -86.1380 153° Southeast 448 516 37,000  Level FlightAware ADS-B
Tue 07:29:42 PM 38.0230 -86.0890 153° Southeast 447 514 37,000  Level FlightAware ADS-B
Tue 07:30:22 PM 37.9490 -86.0400 152° Southeast 446 513 37,000  Level FlightAware ADS-B
Tue 07:31:07 PM 37.8680 -85.9870 153° Southeast 445 512 37,000  Level FlightAware ADS-B
Tue 07:31:47 PM 37.7960 -85.9390 152° Southeast 445 512 37,000 225 Level FlightAware ADS-B
Tue 07:32:27 PM 37.7220 -85.8920 153° Southeast 453 521 37,300 776 Climbing FlightAware ADS-B
Tue 07:33:12 PM 37.6390 -85.8370 152° Southeast 453 521 38,100 917 Climbing FlightAware ADS-B
Tue 07:33:39 PM 37.5828 -85.8010 153° Southeast 456 525 38,400 724 Climbing FlightAware ADS-B
Tue 07:34:10 PM 37.5251 -85.7637 153° Southeast 460 529 38,800 356 Climbing FlightAware ADS-B
Tue 07:35:20 PM 37.3917 -85.6776 153° Southeast 463 533 39,000 119 Climbing FlightAware ADS-B
Tue 07:35:51 PM 37.3327 -85.6396 153° Southeast 462 532 39,000  Level FlightAware ADS-B
Tue 07:36:21 PM 37.2751 -85.6025 153° Southeast 462 532 39,000  Level FlightAware ADS-B
Tue 07:36:52 PM 37.2176 -85.5657 153° Southeast 461 531 39,000  Level FlightAware ADS-B
Tue 07:37:22 PM 37.1606 -85.5291 153° Southeast 461 531 39,000  Level FlightAware ADS-B
Tue 07:38:07 PM 37.0780 -85.4770 153° Southeast 460 529 39,000  Level FlightAware ADS-B
Tue 07:38:14 PM 37.0616 -85.4660 152° Southeast 460 529 39,000  Level FlightAware ADS-B
Tue 07:38:44 PM 37.0047 -85.4297 153° Southeast 462 532 39,000  Level FlightAware ADS-B
Tue 07:39:14 PM 36.9477 -85.3927 153° Southeast 461 531 39,000  Level FlightAware ADS-B
Tue 07:39:44 PM 36.8909 -85.3558 153° Southeast 462 532 39,000  Level FlightAware ADS-B
Tue 07:40:31 PM 36.8020 -85.2979 152° Southeast 463 533 39,000  Level FlightAware ADS-B
Tue 07:41:03 PM 36.7414 -85.2585 152° Southeast 463 533 39,000  Level FlightAware ADS-B
Tue 07:41:34 PM 36.6832 -85.2207 152° Southeast 463 533 39,000  Level FlightAware ADS-B
Tue 07:42:04 PM 36.6259 -85.1835 152° Southeast 462 532 39,000  Level FlightAware ADS-B
Tue 07:42:48 PM 36.5425 -85.1292 152° Southeast 462 532 39,000  Level FlightAware ADS-B
Tue 07:43:04 PM 36.5118 -85.1108 154° Southeast 461 531 39,000  Level FlightAware ADS-B
Tue 07:43:11 PM 36.4977 -85.1040 159° South 460 529 39,000  Level FlightAware ADS-B
Tue 07:43:42 PM 36.4360 -85.0840 165° South 459 528 39,000  Level FlightAware ADS-B
Tue 07:43:55 PM 36.4070 -85.0768 169° South 460 529 39,000  Level FlightAware ADS-B
Tue 07:44:26 PM 36.3423 -85.0614 169° South 459 528 39,000  Level FlightAware ADS-B
Tue 07:44:56 PM 36.2801 -85.0468 169° South 459 528 39,000  Level FlightAware ADS-B
Tue 07:45:30 PM 36.2073 -85.0299 169° South 458 527 39,000  Level FlightAware ADS-B
Tue 07:46:02 PM 36.1420 -85.0144 169° South 458 527 39,000  Level FlightAware ADS-B
Tue 07:46:33 PM 36.0777 -84.9989 169° South 458 527 39,000  Level FlightAware ADS-B
Tue 07:47:14 PM 35.9917 -84.9783 169° South 458 527 39,000  Level FlightAware ADS-B
Tue 07:47:44 PM 35.9289 -84.9634 169° South 458 527 39,000  Level FlightAware ADS-B
Tue 07:48:14 PM 35.8662 -84.9486 169° South 458 527 39,000  Level FlightAware ADS-B
Tue 07:48:45 PM 35.8030 -84.9337 169° South 459 528 39,000  Level FlightAware ADS-B
Tue 07:49:15 PM 35.7387 -84.9186 169° South 460 529 39,000  Level FlightAware ADS-B
Tue 07:49:46 PM 35.6738 -84.9034 169° South 461 531 39,000  Level FlightAware ADS-B
Tue 07:50:16 PM 35.6110 -84.8886 169° South 462 532 39,000  Level FlightAware ADS-B
Tue 07:50:47 PM 35.5466 -84.8735 169° South 464 534 39,000  Level FlightAware ADS-B
Tue 07:51:18 PM 35.4814 -84.8582 169° South 465 535 39,000  Level FlightAware ADS-B
Tue 07:51:49 PM 35.4165 -84.8430 169° South 466 536 39,000  Level FlightAware ADS-B
Tue 07:52:20 PM 35.3503 -84.8276 169° South 467 537 39,000  Level FlightAware ADS-B
Tue 07:52:50 PM 35.2866 -84.8129 169° South 469 540 39,000  Level FlightAware ADS-B
Tue 07:53:20 PM 35.2218 -84.7979 169° South 469 540 39,000  Level FlightAware ADS-B
Tue 07:53:51 PM 35.1569 -84.7832 170° South 468 539 39,000  Level FlightAware ADS-B
Tue 07:54:21 PM 35.0915 -84.7679 169° South 468 539 39,000  Level FlightAware ADS-B
Tue 07:54:52 PM 35.0251 -84.7523 169° South 468 539 39,000  Level FlightAware ADS-B
Tue 07:55:25 PM 34.9555 -84.7363 169° South 468 539 39,000  Level FlightAware ADS-B
Tue 07:55:58 PM 34.8862 -84.7203 169° South 469 540 39,000  Level FlightAware ADS-B
Tue 07:56:32 PM 34.8240 -84.7060 169° South 461 531 39,000  Level FlightAware ADS-B
Tue 07:57:17 PM 34.7370 -84.6860 169° South 460 529 39,000  Level FlightAware ADS-B
Tue 07:57:57 PM 34.6480 -84.6660 170° South 458 527 39,000  Level FlightAware ADS-B
Tue 07:58:37 PM 34.5600 -84.6460 169° South 457 526 39,000  Level FlightAware ADS-B
Tue 07:58:53 PM 34.5133 -84.6348 169° South 465 535 39,000  Level FlightAware ADS-B
Tue 07:59:32 PM 34.4325 -84.6165 169° South 465 535 39,000  Level FlightAware ADS-B
Tue 08:00:02 PM 34.3690 -84.6019 169° South 464 534 39,000  Level FlightAware ADS-B
Tue 08:00:42 PM 34.2950 -84.5850 169° South 455 524 39,000  Level FlightAware ADS-B
Tue 08:00:50 PM 34.2664 -84.5785 169° South 463 533 39,000  Level FlightAware ADS-B
Tue 08:01:27 PM 34.1990 -84.5630 169° South 455 524 39,000  Level FlightAware ADS-B
Tue 08:02:07 PM 34.1160 -84.5440 169° South 454 522 39,000  Level FlightAware ADS-B
Tue 08:02:52 PM 34.0180 -84.5230 170° South 461 531 39,000  Level FlightAware ADS-B
Tue 08:03:37 PM 33.9240 -84.5020 169° South 461 531 39,000  Level FlightAware ADS-B
Tue 08:04:12 PM 33.8530 -84.4860 169° South 461 531 39,000  Level FlightAware ADS-B
Tue 08:05:12 PM 33.7152 -84.4543 169° South 466 536 39,000  Level FlightAware ADS-B
Tue 08:08:02 PM 33.3690 -84.3270 163° South 466 536 39,000  Level FlightAware ADS-B
Tue 08:08:42 PM 33.2860 -84.2920 161° South 463 533 39,000  Level FlightAware ADS-B
Tue 08:09:27 PM 33.2010 -84.2560 160° South 458 527 39,000  Level FlightAware ADS-B
Tue 08:10:17 PM 33.0990 -84.2140 161° South 456 525 39,000  Level FlightAware ADS-B
Tue 08:11:02 PM 33.0090 -84.1770 161° South 452 520 39,000  Level FlightAware ADS-B
Tue 08:11:42 PM 32.9330 -84.1460 161° South 450 518 39,000  Level FlightAware ADS-B
Tue 08:12:22 PM 32.8540 -84.1130 161° South 441 507 39,000  Level FlightAware ADS-B
Tue 08:13:07 PM 32.7690 -84.0780 161° South 441 507 39,000  Level FlightAware ADS-B
Tue 08:13:52 PM 32.6800 -84.0420 161° South 442 509 39,000  Level FlightAware ADS-B
Tue 08:14:27 PM 32.6100 -84.0130 161° South 442 509 39,000  Level FlightAware ADS-B
Tue 08:15:17 PM 32.5150 -83.9730 160° South 446 513 39,000  Level FlightAware ADS-B
Tue 08:15:52 PM 32.4410 -83.9440 162° South 445 512 39,000  Level FlightAware ADS-B
Tue 08:16:27 PM 32.3780 -83.9180 161° South 445 512 39,000  Level FlightAware ADS-B
Tue 08:17:22 PM 32.2830 -83.8770 160° South 445 512 39,000  Level FlightAware ADS-B
Tue 08:18:02 PM 32.2170 -83.8490 160° South 445 512 39,000  Level FlightAware ADS-B
Tue 08:18:42 PM 32.1510 -83.8210 160° South 445 512 39,000  Level FlightAware ADS-B
Tue 08:19:22 PM 32.0850 -83.7920 160° South 445 512 39,000  Level FlightAware ADS-B
Tue 08:20:02 PM 32.0200 -83.7640 160° South 445 512 39,000  Level FlightAware ADS-B
Tue 08:20:52 PM 31.9370 -83.7290 160° South 445 512 39,000  Level FlightAware ADS-B
Tue 08:21:32 PM 31.8720 -83.7010 160° South 445 512 39,000  Level FlightAware ADS-B
Tue 08:22:12 PM 31.8060 -83.6720 160° South 445 512 39,000  Level FlightAware ADS-B
Tue 08:22:52 PM 31.7400 -83.6440 160° South 445 512 39,000  Level FlightAware ADS-B
Tue 08:23:32 PM 31.6740 -83.6160 160° South 445 512 39,000  Level FlightAware ADS-B
Tue 08:24:22 PM 31.5920 -83.5810 160° South 445 512 39,000  Level FlightAware ADS-B
Tue 08:25:02 PM 31.5260 -83.5530 160° South 445 512 39,000  Level FlightAware ADS-B
Tue 08:25:42 PM 31.4610 -83.5250 160° South 445 512 39,000  Level FlightAware ADS-B
Tue 08:26:22 PM 31.3950 -83.4970 160° South 445 512 39,000  Level FlightAware ADS-B
Tue 08:27:07 PM 31.1010 -83.4660 175° South 445 512 39,000  Level FlightAware ADS-B
Tue 08:27:52 PM 31.1190 -83.4700 349° North 442 509 39,000  Level FlightAware ADS-B
Tue 08:28:32 PM 31.0520 -83.4480 164° South 442 509 39,000  Level FlightAware ADS-B
Tue 08:29:12 PM 30.9850 -83.4260 164° South 442 509 39,000  Level FlightAware ADS-B
Tue 08:29:52 PM 30.9180 -83.4030 164° South 442 509 39,000  Level FlightAware ADS-B
Tue 08:30:37 PM 31.1010 -83.4660 344° North 445 512 39,000  Level FlightAware ADS-B
Tue 08:31:07 PM 31.0510 -83.4500 165° South 445 512 39,000  Level FlightAware ADS-B
Tue 08:32:02 PM 31.0950 -83.4640 345° North 445 512 39,000  Level FlightAware ADS-B
Tue 08:32:42 PM 31.0270 -83.4430 165° South 445 512 39,000  Level FlightAware ADS-B
Tue 08:33:22 PM 31.1600 -83.4840 345° North 445 512 39,000  Level FlightAware ADS-B
Tue 08:34:07 PM 31.0810 -83.4580 164° South 445 512 39,000  Level FlightAware ADS-B
Tue 08:34:47 PM 31.0140 -83.4350 164° South 445 512 39,000  Level FlightAware ADS-B
Tue 08:35:27 PM 30.9470 -83.4130 164° South 445 512 39,000  Level FlightAware ADS-B
Tue 08:36:07 PM 30.8800 -83.3900 164° South 445 512 39,000  Level FlightAware ADS-B
Tue 08:36:57 PM 30.7950 -83.3620 164° South 445 512 39,000  Level FlightAware ADS-B
Tue 08:37:37 PM 30.7280 -83.3400 164° South 445 512 39,000  Level FlightAware ADS-B
Tue 08:38:17 PM 30.6610 -83.3170 164° South 445 512 39,000  Level FlightAware ADS-B
Tue 08:38:57 PM 30.5940 -83.2950 164° South 445 512 39,000  Level FlightAware ADS-B
Tue 08:39:42 PM 29.6020 -83.0030 166° South 39,000  Level FlightAware ADS-B
Tue 08:40:27 PM 29.5130 -82.9760 165° South 435 501 39,000  Level FlightAware ADS-B
Tue 08:41:37 PM 29.3780 -82.9790 181° South 421 484 39,000  Level FlightAware ADS-B
Tue 08:42:17 PM 29.3050 -82.9900 187° South 422 486 39,000  Level FlightAware ADS-B
Tue 08:43:12 PM 29.1890 -83.0110 189° South 425 489 39,000  Level FlightAware ADS-B
Tue 08:43:57 PM 29.1020 -83.0260 189° South 425 489 39,000  Level FlightAware ADS-B
Tue 08:44:27 PM 29.0430 -83.0360 188° South 425 489 39,000  Level FlightAware ADS-B
Tue 08:45:22 PM 28.9360 -83.0540 188° South 423 487 39,000  Level FlightAware ADS-B
Tue 08:46:02 PM 28.8580 -83.0680 189° South 420 483 39,000  Level FlightAware ADS-B
Tue 08:46:42 PM 28.7810 -83.0810 188° South 419 482 39,000  Level FlightAware ADS-B
Tue 08:47:27 PM 28.6930 -83.0950 188° South 419 482 39,000  Level FlightAware ADS-B
Tue 08:48:07 PM 28.6180 -83.1070 188° South 410 472 39,000  Level FlightAware ADS-B
Tue 08:48:47 PM 28.5380 -83.1200 188° South 410 472 39,000  Level FlightAware ADS-B
Tue 08:49:32 PM 28.4550 -83.1340 188° South 422 486 39,000  Level FlightAware ADS-B
Tue 08:50:02 PM 28.3930 -83.1240 172° South 443 510 39,000  Level FlightAware ADS-B
Tue 08:50:42 PM 28.3250 -83.0740 147° Southeast 473 544 39,000  Level FlightAware ADS-B
Tue 08:51:22 PM 28.2680 -82.9940 129° Southeast 479 551 39,000  Level FlightAware ADS-B
Tue 08:52:07 PM 28.2090 -82.9020 126° Southeast 478 550 39,000  Level FlightAware ADS-B
Tue 08:52:47 PM 28.1570 -82.8210 126° Southeast 477 549 39,000  Level FlightAware ADS-B
Tue 08:53:32 PM 28.0970 -82.7270 126° Southeast 476 548 39,000  Level FlightAware ADS-B
Tue 08:54:12 PM 28.0450 -82.6450 126° Southeast 476 548 39,000  Level FlightAware ADS-B
Tue 08:54:52 PM 27.9930 -82.5640 126° Southeast 476 548 39,000  Level FlightAware ADS-B
Tue 08:55:37 PM 27.9220 -82.4990 141° Southeast 441 507 39,000  Level FlightAware ADS-B
Tue 08:56:17 PM 27.8400 -82.4680 162° South 427 491 39,000 -71 Level FlightAware ADS-B
Tue 08:57:02 PM 27.7580 -82.4380 162° South 423 487 38,900 -565 Descending FlightAware ADS-B
Tue 08:57:42 PM 27.6820 -82.4100 162° South 425 489 38,200 -1,059 Descending FlightAware ADS-B
Tue 08:58:27 PM 27.5890 -82.3760 162° South 429 494 37,400 -988 Descending FlightAware ADS-B
Tue 08:59:07 PM 27.5180 -82.3500 162° South 432 497 36,800 -900 Descending FlightAware ADS-B
Tue 08:59:47 PM 27.4400 -82.3210 162° South 435 501 36,200 -600 Descending FlightAware ADS-B
Tue 09:00:27 PM 27.3620 -82.2930 162° South 438 504 36,000 -150 Descending FlightAware ADS-B
Tue 09:01:07 PM 27.2880 -82.2660 162° South 437 503 36,000  Level FlightAware ADS-B
Tue 09:01:52 PM 27.1990 -82.2260 158° South 455 524 36,000  Level FlightAware ADS-B
Tue 09:02:32 PM 27.1400 -82.1690 139° Southeast 466 536 36,000 -988 Level FlightAware ADS-B
Tue 09:03:17 PM 27.0650 -82.0810 134° Southeast 471 542 34,600 -2,400 Descending FlightAware ADS-B
Tue 09:03:57 PM 27.0060 -82.0130 134° Southeast 475 547 32,600 -3,176 Descending FlightAware ADS-B
Tue 09:04:42 PM 26.9360 -81.9320 134° Southeast 480 552 30,100 -3,120 Descending FlightAware ADS-B
Tue 09:05:12 PM 26.8900 -81.8780 134° Southeast 477 549 28,700 -2,571 Descending FlightAware ADS-B
Tue 09:05:52 PM 26.8350 -81.8130 133° Southeast 469 540 27,100 -2,475 Descending FlightAware ADS-B
Tue 09:06:32 PM 26.7740 -81.7420 134° Southeast 458 527 25,400 -2,475 Descending FlightAware ADS-B
Tue 09:07:12 PM 26.7180 -81.6770 134° Southeast 447 514 23,800 -2,471 Descending FlightAware ADS-B
Tue 09:07:57 PM 26.6510 -81.5990 134° Southeast 434 499 21,900 -2,400 Descending FlightAware ADS-B
Tue 09:08:37 PM 26.5980 -81.5370 134° Southeast 424 488 20,400 -2,259 Descending FlightAware ADS-B
Tue 09:09:22 PM 26.5380 -81.4670 134° Southeast 413 475 18,700 -2,267 Descending FlightAware ADS-B
Tue 09:10:07 PM 26.4790 -81.4000 135° Southeast 397 457 17,000 -2,259 Descending FlightAware ADS-B
Tue 09:10:47 PM 26.4290 -81.3420 134° Southeast 383 441 15,500 -2,250 Descending FlightAware ADS-B
Tue 09:11:27 PM 26.3790 -81.2840 134° Southeast 375 432 14,000 -2,188 Descending FlightAware ADS-B
Tue 09:12:12 PM 26.3250 -81.2220 134° Southeast 371 427 12,400 -2,133 Descending FlightAware ADS-B
Tue 09:12:57 PM 26.2730 -81.1610 134° Southeast 353 406 10,800 -1,553 Descending FlightAware ADS-B
Tue 09:13:37 PM 26.2280 -81.1100 135° Southeast 323 372 10,200 -686 Descending FlightAware ADS-B
Tue 09:14:07 PM 26.1980 -81.0750 134° Southeast 288 331 10,000 -655 Descending FlightAware ADS-B
Tue 09:14:32 PM 26.1750 -81.0490 135° Southeast 278 320 9,600 -1,200 Descending FlightAware ADS-B
Tue 09:15:02 PM 26.1480 -81.0180 134° Southeast 280 322 8,900 -1,333 Descending FlightAware ADS-B
Tue 09:15:17 PM 26.1340 -81.0020 134° Southeast 280 322 8,600 -1,600 Descending FlightAware ADS-B
Tue 09:15:32 PM 26.1250 -80.9850 121° Southeast 285 328 8,100 -2,160 Descending FlightAware ADS-B
Tue 09:15:42 PM 26.1220 -80.9700 103° East 294 338 7,700 -1,800 Descending FlightAware ADS-B
Tue 09:16:12 PM 26.1250 -80.9220 86° East 299 344 6,900 -1,600 Descending FlightAware ADS-B
Tue 09:16:42 PM 26.1260 -80.8770 89° East 297 342 6,100 -1,091 Descending FlightAware ADS-B
Tue 09:17:07 PM 26.1280 -80.8380 87° East 294 338 5,900 -218 Descending FlightAware ADS-B
Tue 09:17:37 PM 26.1290 -80.7920 89° East 291 335 5,900  Level FlightAware ADS-B
Tue 09:18:07 PM 26.1310 -80.7480 87° East 293 337 5,900  Level FlightAware ADS-B
Tue 09:18:17 PM 26.1310 -80.7330 90° East 293 337 5,900  Level FlightAware ADS-B
Tue 09:18:47 PM 26.1330 -80.6870 87° East 291 335 5,900  Level FlightAware ADS-B
Tue 09:19:17 PM 26.1350 -80.6430 87° East 290 334 5,900  Level FlightAware ADS-B
Tue 09:19:42 PM 26.1360 -80.6050 88° East 290 334 5,900  Level FlightAware ADS-B
Tue 09:19:57 PM 26.1360 -80.5830 90° East 290 334 5,900  Level FlightAware ADS-B
Tue 09:20:22 PM 26.1380 -80.5460 87° East 290 334 5,900  Level FlightAware ADS-B
Tue 09:20:52 PM 26.1390 -80.5010 89° East 290 334 5,900  Level FlightAware ADS-B
Tue 09:21:07 PM 26.1400 -80.4780 87° East 290 334 5,900  Level FlightAware ADS-B
Tue 09:21:37 PM 26.1410 -80.4340 89° East 291 335 5,900  Level FlightAware ADS-B
Tue 09:22:02 PM 26.1430 -80.3960 87° East 292 336 5,900  Level FlightAware ADS-B
Tue 09:22:32 PM 26.1440 -80.3510 89° East 292 336 5,900  Level FlightAware ADS-B
Tue 09:22:57 PM 26.1450 -80.3140 88° East 293 337 5,900  Level FlightAware ADS-B
Tue 09:23:27 PM 26.1470 -80.2680 87° East 294 338 5,900  Level FlightAware ADS-B
Tue 09:23:57 PM 26.1480 -80.2240 89° East 293 337 5,900  Level FlightAware ADS-B
Tue 09:24:07 PM 26.1480 -80.2090 90° East 290 334 5,900  Level FlightAware ADS-B
Tue 09:24:37 PM 26.1500 -80.1640 87° East 283 326 5,900  Level FlightAware ADS-B
Tue 09:25:02 PM 26.1510 -80.1290 88° East 284 327 5,900 -109 Level FlightAware ADS-B
Tue 09:25:32 PM 26.1530 -80.0870 87° East 260 299 5,800 -400 Descending FlightAware ADS-B
Tue 09:26:02 PM 26.1550 -80.0470 87° East 245 282 5,500 -655 Descending FlightAware ADS-B
Tue 09:26:27 PM 26.1570 -80.0170 86° East 236 272 5,200 -873 Descending FlightAware ADS-B
Tue 09:26:57 PM 26.1580 -79.9810 88° East 234 269 4,700 -1,067 Descending FlightAware ADS-B
Tue 09:27:12 PM 26.1590 -79.9620 87° East 233 268 4,400 -1,029 Descending FlightAware ADS-B
Tue 09:27:32 PM 26.1600 -79.9390 87° East 232 267 4,100 -1,050 Descending FlightAware ADS-B
Tue 09:27:52 PM 26.1520 -79.9180 113° Southeast 225 259 3,700 -1,200 Descending FlightAware ADS-B
Tue 09:28:07 PM 26.1370 -79.9110 157° South 213 245 3,400 -1,650 Descending FlightAware ADS-B
Tue 09:28:32 PM 26.1130 -79.9200 199° South 220 253 2,600 -1,200 Descending FlightAware ADS-B
Tue 09:29:02 PM 26.0950 -79.9460 232° Southwest 199 229 2,300 -545 Descending FlightAware ADS-B
Tue 09:29:27 PM 26.0830 -79.9660 236° Southwest 191 220 2,100 -436 Descending FlightAware ADS-B
Tue 09:29:57 PM 26.0770 -79.9940 257° West 185 213 1,900 -218 Descending FlightAware ADS-B
Tue 09:30:22 PM 26.0760 -80.0180 267° West 183 211 1,900 -300 Level FlightAware ADS-B
Tue 09:30:57 PM 26.0760 -80.0460 270° West 159 183 1,600 -700 Descending FlightAware ADS-B
Tue 09:31:22 PM 26.0760 -80.0650 270° West 142 163 1,200 -900 Descending FlightAware ADS-B
Tue 09:31:37 PM 26.0760 -80.0770 270° West 140 161 1,000 -750 Descending FlightAware ADS-B
Tue 09:32:02 PM 26.0770 -80.0940 274° West 135 155 700 -655 Descending FlightAware ADS-B
Tue 09:32:32 PM 26.0770 -80.1140 270° West 133 153 400 -655 Descending FlightAware ADS-B
Tue 09:32:57 PM 26.0770 -80.1300 270° West 138 159 100 -360 Descending FlightAware ADS-B
Tue 09:33:22 PM 26.0770 -80.1470 270° West 138 159 100  Level FlightAware ADS-B

Login

Don't have an account? Register now (free) for customized features, flight alerts, and more!